createdAt,value
2023-01-01T00:00:34.000Z,13.9
2023-01-01T00:01:46.000Z,13.9
2023-01-01T00:02:58.000Z,13.8
2023-01-01T00:04:10.000Z,13.8
2023-01-01T00:05:22.000Z,13.8
2023-01-01T00:06:34.000Z,13.8
2023-01-01T00:07:46.000Z,13.8
2023-01-01T00:08:58.000Z,13.8
2023-01-01T00:10:11.000Z,13.8
2023-01-01T00:11:23.000Z,13.8
2023-01-01T00:12:35.000Z,13.8
2023-01-01T00:13:47.000Z,13.8
2023-01-01T00:14:59.000Z,13.8
2023-01-01T00:16:11.000Z,13.8
2023-01-01T00:17:24.000Z,13.8
2023-01-01T00:18:36.000Z,13.8
2023-01-01T00:19:47.000Z,13.8
2023-01-01T00:20:59.000Z,13.8
2023-01-01T00:22:11.000Z,13.8
2023-01-01T00:23:24.000Z,13.8
2023-01-01T00:24:36.000Z,13.8
2023-01-01T00:25:48.000Z,13.8
2023-01-01T00:27:00.634Z,13.8
2023-01-01T00:28:12.000Z,13.8
2023-01-01T00:29:25.000Z,13.8
2023-01-01T00:30:37.000Z,13.8
2023-01-01T00:33:01.000Z,13.8
2023-01-01T00:34:13.000Z,13.8
2023-01-01T00:35:24.000Z,13.8
2023-01-01T00:36:37.000Z,13.8
2023-01-01T00:37:49.000Z,13.8
2023-01-01T00:39:01.000Z,13.8
2023-01-01T00:39:06.948Z,13.8
2023-01-01T00:40:13.000Z,13.8
2023-01-01T00:41:25.000Z,13.8
2023-01-01T00:42:38.000Z,13.8
2023-01-01T00:43:50.000Z,13.8
2023-01-01T00:46:14.000Z,13.7
2023-01-01T00:47:26.000Z,13.7
2023-01-01T00:48:38.000Z,13.7
2023-01-01T00:49:51.000Z,13.7
2023-01-01T00:51:02.000Z,13.7
2023-01-01T00:52:14.000Z,13.7
2023-01-01T00:52:20.017Z,13.7
2023-01-01T00:53:26.000Z,13.7
2023-01-01T00:54:38.000Z,13.7
2023-01-01T00:55:51.000Z,13.7
2023-01-01T00:57:03.000Z,13.7
2023-01-01T00:58:15.000Z,13.7
2023-01-01T00:59:27.000Z,13.7
2023-01-01T01:00:39.000Z,13.7
2023-01-01T01:01:52.000Z,13.7
2023-01-01T01:03:04.000Z,13.7
2023-01-01T01:04:16.000Z,13.6
2023-01-01T01:05:28.000Z,13.6
2023-01-01T01:06:39.000Z,13.6
2023-01-01T01:07:51.000Z,13.6
2023-01-01T01:09:04.000Z,13.6
2023-01-01T01:10:16.000Z,13.6
2023-01-01T01:11:28.000Z,13.6
2023-01-01T01:12:40.000Z,13.6
2023-01-01T01:13:52.000Z,13.6
2023-01-01T01:15:05.000Z,13.6
2023-01-01T01:16:17.000Z,13.6
2023-01-01T01:17:29.000Z,13.6
2023-01-01T01:18:41.000Z,13.6
2023-01-01T01:19:53.000Z,13.6
2023-01-01T01:21:06.000Z,13.6
2023-01-01T01:22:17.000Z,13.6
2023-01-01T01:23:29.000Z,13.6
2023-01-01T01:24:41.000Z,13.6
2023-01-01T01:25:53.000Z,13.6
2023-01-01T01:27:05.000Z,13.6
2023-01-01T01:28:18.000Z,13.6
2023-01-01T01:29:30.000Z,13.6
2023-01-01T01:30:42.000Z,13.6
2023-01-01T01:31:54.000Z,13.6
2023-01-01T01:33:06.000Z,13.6
2023-01-01T01:34:19.000Z,13.6
2023-01-01T01:35:31.000Z,13.6
2023-01-01T01:36:43.000Z,13.6
2023-01-01T01:37:54.000Z,13.6
2023-01-01T01:39:06.000Z,13.6
2023-01-01T01:40:19.000Z,13.6
2023-01-01T01:41:31.000Z,13.6
2023-01-01T01:42:43.000Z,13.6
2023-01-01T01:43:55.000Z,13.6
2023-01-01T01:45:07.000Z,13.6
2023-01-01T01:46:19.000Z,13.6
2023-01-01T01:47:32.000Z,13.6
2023-01-01T01:48:44.000Z,13.5
2023-01-01T01:49:56.000Z,13.5
2023-01-01T01:51:08.000Z,13.5
2023-01-01T01:52:20.000Z,13.5
2023-01-01T01:53:32.000Z,13.5
2023-01-01T01:54:44.000Z,13.5
2023-01-01T01:55:56.000Z,13.5
2023-01-01T01:57:08.000Z,13.5
2023-01-01T01:58:20.000Z,13.5
2023-01-01T01:59:33.000Z,13.5
2023-01-01T02:00:45.000Z,13.5
2023-01-01T02:01:57.000Z,13.5
2023-01-01T02:03:09.000Z,13.5
2023-01-01T02:04:21.000Z,13.5
2023-01-01T02:06:46.000Z,13.5
2023-01-01T02:07:58.000Z,13.5
2023-01-01T02:09:09.000Z,13.5
2023-01-01T02:10:21.000Z,13.5
2023-01-01T02:11:33.000Z,13.5
2023-01-01T02:12:46.000Z,13.5
2023-01-01T02:12:51.572Z,13.5
2023-01-01T02:13:58.000Z,13.5
2023-01-01T02:15:10.000Z,13.5
2023-01-01T02:16:22.000Z,13.5
2023-01-01T02:17:34.000Z,13.5
2023-01-01T02:18:47.000Z,13.5
2023-01-01T02:19:59.000Z,13.5
2023-01-01T02:21:11.000Z,13.5
2023-01-01T02:22:23.000Z,13.5
2023-01-01T02:23:35.000Z,13.5
2023-01-01T02:24:46.000Z,13.5
2023-01-01T02:25:59.000Z,13.5
2023-01-01T02:28:23.000Z,13.5
2023-01-01T02:29:35.000Z,13.5
2023-01-01T02:30:47.000Z,13.5
2023-01-01T02:31:59.000Z,13.5
2023-01-01T02:33:11.000Z,13.5
2023-01-01T02:34:23.000Z,13.5
2023-01-01T02:34:28.966Z,13.5
2023-01-01T02:35:35.000Z,13.5
2023-01-01T02:38:00.000Z,13.5
2023-01-01T02:39:12.000Z,13.5
2023-01-01T02:40:24.000Z,13.5
2023-01-01T02:41:36.000Z,13.5
2023-01-01T02:42:48.000Z,13.5
2023-01-01T02:44:00.000Z,13.5
2023-01-01T02:45:13.000Z,13.5
2023-01-01T02:46:25.000Z,13.5
2023-01-01T02:47:36.000Z,13.5
2023-01-01T02:48:48.000Z,13.5
2023-01-01T02:50:00.000Z,13.5
2023-01-01T02:51:13.000Z,13.4
2023-01-01T02:52:25.000Z,13.5
2023-01-01T02:53:37.000Z,13.4
2023-01-01T02:54:49.000Z,13.4
2023-01-01T02:57:14.000Z,13.4
2023-01-01T02:58:26.000Z,13.4
2023-01-01T02:59:38.000Z,13.4
2023-01-01T03:00:50.000Z,13.4
2023-01-01T03:02:02.000Z,13.4
2023-01-01T03:03:19.468Z,13.4
2023-01-01T03:04:26.000Z,13.4
2023-01-01T03:05:38.000Z,13.4
2023-01-01T03:06:50.000Z,13.4
2023-01-01T03:08:02.000Z,13.4
2023-01-01T03:09:14.000Z,13.4
2023-01-01T03:10:27.000Z,13.4
2023-01-01T03:10:31.605Z,13.4
2023-01-01T03:11:39.000Z,13.4
2023-01-01T03:12:51.000Z,13.4
2023-01-01T03:14:03.000Z,13.4
2023-01-01T03:15:15.000Z,13.4
2023-01-01T03:16:27.000Z,13.4
2023-01-01T03:17:40.000Z,13.4
2023-01-01T03:18:51.000Z,13.4
2023-01-01T03:20:03.000Z,13.4
2023-01-01T03:21:15.000Z,13.4
2023-01-01T03:22:27.000Z,13.4
2023-01-01T03:23:40.000Z,13.4
2023-01-01T03:24:52.000Z,13.4
2023-01-01T03:26:04.000Z,13.4
2023-01-01T03:27:16.000Z,13.4
2023-01-01T03:29:41.000Z,13.4
2023-01-01T03:30:53.000Z,13.4
2023-01-01T03:32:05.000Z,13.4
2023-01-01T03:33:17.000Z,13.4
2023-01-01T03:34:28.000Z,13.3
2023-01-01T03:35:40.000Z,13.3
2023-01-01T03:35:46.537Z,13.4
2023-01-01T03:36:53.000Z,13.4
2023-01-01T03:38:05.000Z,13.3
2023-01-01T03:39:17.000Z,13.3
2023-01-01T03:40:29.000Z,13.3
2023-01-01T03:41:41.000Z,13.3
2023-01-01T03:42:54.000Z,13.3
2023-01-01T03:44:06.000Z,13.3
2023-01-01T03:45:18.000Z,13.3
2023-01-01T03:46:30.000Z,13.3
2023-01-01T03:47:42.000Z,13.3
2023-01-01T03:48:55.000Z,13.3
2023-01-01T03:50:06.000Z,13.3
2023-01-01T03:51:18.000Z,13.3
2023-01-01T03:52:30.000Z,13.3
2023-01-01T03:53:42.000Z,13.3
2023-01-01T03:54:54.000Z,13.3
2023-01-01T03:56:07.000Z,13.3
2023-01-01T03:58:31.000Z,13.3
2023-01-01T03:59:43.000Z,13.3
2023-01-01T04:00:55.000Z,13.4
2023-01-01T04:02:08.000Z,13.3
2023-01-01T04:03:20.000Z,13.3
2023-01-01T04:04:32.000Z,13.4
2023-01-01T04:04:37.043Z,13.3
2023-01-01T04:05:43.000Z,13.3
2023-01-01T04:06:55.000Z,13.3
2023-01-01T04:08:08.000Z,13.4
2023-01-01T04:09:20.000Z,13.3
2023-01-01T04:10:32.000Z,13.3
2023-01-01T04:11:44.000Z,13.3
2023-01-01T04:12:56.000Z,13.3
2023-01-01T04:14:08.000Z,13.3
2023-01-01T04:15:21.000Z,13.3
2023-01-01T04:16:33.000Z,13.3
2023-01-01T04:17:45.000Z,13.3
2023-01-01T04:21:21.000Z,13.3
2023-01-01T04:22:33.000Z,13.3
2023-01-01T04:23:45.000Z,13.3
2023-01-01T04:24:57.000Z,13.3
2023-01-01T04:26:09.000Z,13.3
2023-01-01T04:26:15.415Z,13.3
2023-01-01T04:27:22.000Z,13.3
2023-01-01T04:27:27.605Z,13.3
2023-01-01T04:28:34.000Z,13.3
2023-01-01T04:29:46.000Z,13.3
2023-01-01T04:30:58.000Z,13.3
2023-01-01T04:32:10.000Z,13.2
2023-01-01T04:34:35.000Z,13.2
2023-01-01T04:35:47.000Z,13.2
2023-01-01T04:36:58.000Z,13.2
2023-01-01T04:38:10.000Z,13.2
2023-01-01T04:39:22.000Z,13.2
2023-01-01T04:40:35.000Z,13.2
2023-01-01T04:40:40.673Z,13.2
2023-01-01T04:41:47.000Z,13.2
2023-01-01T04:42:59.000Z,13.2
2023-01-01T04:44:11.000Z,13.2
2023-01-01T04:45:23.000Z,13.2
2023-01-01T04:46:36.000Z,13.2
2023-01-01T04:47:48.000Z,13.2
2023-01-01T04:49:00.000Z,13.2
2023-01-01T04:50:12.000Z,13.1
2023-01-01T04:51:24.000Z,13.1
2023-01-01T04:52:35.000Z,13.1
2023-01-01T04:53:48.000Z,13.1
2023-01-01T04:55:00.000Z,13.1
2023-01-01T04:56:12.000Z,13.1
2023-01-01T04:57:24.000Z,13.1
2023-01-01T04:58:36.000Z,13.1
2023-01-01T04:59:49.000Z,13.1
2023-01-01T05:01:01.000Z,13.1
2023-01-01T05:02:13.000Z,13.1
2023-01-01T05:03:25.000Z,13.1
2023-01-01T05:04:37.000Z,13.1
2023-01-01T05:05:49.000Z,13
2023-01-01T05:07:02.000Z,13
2023-01-01T05:08:13.000Z,13
2023-01-01T05:09:25.000Z,13
2023-01-01T05:10:37.000Z,13
2023-01-01T05:11:49.000Z,13
2023-01-01T05:13:02.000Z,13
2023-01-01T05:14:14.000Z,13
2023-01-01T05:15:26.000Z,13
2023-01-01T05:16:38.000Z,13
2023-01-01T05:17:50.000Z,13
2023-01-01T05:19:03.000Z,13
2023-01-01T05:20:15.000Z,13
2023-01-01T05:21:27.000Z,13
2023-01-01T05:22:39.000Z,13
2023-01-01T05:23:50.000Z,13
2023-01-01T05:25:02.000Z,13
2023-01-01T05:26:15.000Z,13
2023-01-01T05:27:27.000Z,13
2023-01-01T05:28:39.000Z,13
2023-01-01T05:29:51.000Z,13
2023-01-01T05:31:03.000Z,13
2023-01-01T05:32:16.000Z,13
2023-01-01T05:33:28.000Z,13
2023-01-01T05:34:40.000Z,13
2023-01-01T05:35:52.000Z,13
2023-01-01T05:37:04.000Z,13
2023-01-01T05:38:16.000Z,13
2023-01-01T05:39:28.000Z,13
2023-01-01T05:40:40.000Z,13
2023-01-01T05:41:52.000Z,13
2023-01-01T05:43:04.000Z,13
2023-01-01T05:45:29.000Z,13
2023-01-01T05:46:41.000Z,13
2023-01-01T05:47:53.000Z,13
2023-01-01T05:50:17.000Z,13
2023-01-01T05:51:30.000Z,13
2023-01-01T05:52:42.000Z,13
2023-01-01T05:53:54.000Z,13
2023-01-01T05:55:05.000Z,13
2023-01-01T05:56:17.000Z,13
2023-01-01T05:56:23.410Z,13
2023-01-01T05:57:29.000Z,13
2023-01-01T05:58:42.000Z,13
2023-01-01T05:59:54.000Z,13
2023-01-01T06:01:06.000Z,13
2023-01-01T06:02:18.000Z,13
2023-01-01T06:03:30.000Z,13
2023-01-01T06:04:43.000Z,13
2023-01-01T06:05:55.000Z,13
2023-01-01T06:07:07.000Z,13
2023-01-01T06:08:19.000Z,13
2023-01-01T06:09:31.000Z,13
2023-01-01T06:10:42.000Z,13
2023-01-01T06:11:55.000Z,13
2023-01-01T06:13:07.000Z,13
2023-01-01T06:14:19.000Z,13
2023-01-01T06:15:31.000Z,13
2023-01-01T06:16:43.000Z,13
2023-01-01T06:17:56.000Z,13
2023-01-01T06:19:08.000Z,13
2023-01-01T06:20:20.000Z,13
2023-01-01T06:21:32.000Z,13
2023-01-01T06:22:44.000Z,13
2023-01-01T06:23:57.000Z,13
2023-01-01T06:25:09.000Z,13
2023-01-01T06:26:20.000Z,13
2023-01-01T06:27:32.000Z,13
2023-01-01T06:28:44.000Z,13
2023-01-01T06:29:56.000Z,13
2023-01-01T06:31:09.000Z,13
2023-01-01T06:32:21.000Z,13
2023-01-01T06:34:44.000Z,13
2023-01-01T06:35:56.000Z,12.9
2023-01-01T06:37:09.000Z,12.9
2023-01-01T06:38:21.000Z,13
2023-01-01T06:39:33.000Z,12.9
2023-01-01T06:40:45.000Z,12.9
2023-01-01T06:40:50.321Z,13
2023-01-01T06:41:57.000Z,13
2023-01-01T06:43:09.000Z,12.9
2023-01-01T06:44:22.000Z,12.9
2023-01-01T06:45:34.000Z,12.9
2023-01-01T06:46:46.000Z,12.9
2023-01-01T06:47:58.000Z,12.9
2023-01-01T06:49:09.000Z,13
2023-01-01T06:50:22.000Z,13
2023-01-01T06:51:34.000Z,13
2023-01-01T06:52:46.000Z,12.9
2023-01-01T06:53:58.000Z,12.9
2023-01-01T06:55:10.000Z,13
2023-01-01T06:56:23.000Z,12.9
2023-01-01T06:58:47.000Z,12.9
2023-01-01T06:59:59.000Z,12.9
2023-01-01T07:01:11.000Z,12.9
2023-01-01T07:02:23.000Z,12.9
2023-01-01T07:03:36.000Z,12.9
2023-01-01T07:04:47.000Z,12.9
2023-01-01T07:04:53.028Z,12.9
2023-01-01T07:05:59.000Z,12.9
2023-01-01T07:07:11.000Z,12.9
2023-01-01T07:08:23.000Z,12.9
2023-01-01T07:09:36.000Z,12.9
2023-01-01T07:10:48.000Z,12.9
2023-01-01T07:12:00.000Z,12.9
2023-01-01T07:13:12.000Z,12.9
2023-01-01T07:14:24.000Z,12.9
2023-01-01T07:15:36.000Z,12.9
2023-01-01T07:16:49.000Z,12.9
2023-01-01T07:18:01.000Z,12.9
2023-01-01T07:19:13.000Z,12.9
2023-01-01T07:20:24.000Z,12.9
2023-01-01T07:21:36.000Z,12.9
2023-01-01T07:22:49.000Z,12.9
2023-01-01T07:25:13.000Z,12.9
2023-01-01T07:26:25.000Z,12.9
2023-01-01T07:27:37.000Z,12.9
2023-01-01T07:28:50.000Z,12.9
2023-01-01T07:30:02.000Z,12.9
2023-01-01T07:31:14.000Z,12.9
2023-01-01T07:31:19.121Z,12.9
2023-01-01T07:32:26.000Z,12.9
2023-01-01T07:33:38.000Z,12.9
2023-01-01T07:34:50.000Z,12.9
2023-01-01T07:36:02.000Z,12.9
2023-01-01T07:37:14.000Z,12.9
2023-01-01T07:38:26.000Z,12.9
2023-01-01T07:39:38.000Z,12.9
2023-01-01T07:42:03.000Z,12.9
2023-01-01T07:43:15.000Z,12.9
2023-01-01T07:44:27.000Z,12.9
2023-01-01T07:45:39.000Z,12.9
2023-01-01T07:46:51.000Z,12.9
2023-01-01T07:48:03.000Z,12.9
2023-01-01T07:48:08.736Z,12.9
2023-01-01T07:49:16.000Z,12.9
2023-01-01T07:50:28.000Z,12.9
2023-01-01T07:52:51.000Z,12.9
2023-01-01T07:54:03.000Z,13
2023-01-01T07:55:16.000Z,13
2023-01-01T07:56:28.000Z,13
2023-01-01T07:57:40.000Z,13
2023-01-01T07:58:52.000Z,13
2023-01-01T07:58:57.422Z,12.9
2023-01-01T08:00:04.000Z,13
2023-01-01T08:01:17.000Z,13
2023-01-01T08:02:29.000Z,13
2023-01-01T08:03:41.000Z,13
2023-01-01T08:04:53.000Z,13
2023-01-01T08:06:05.000Z,13
2023-01-01T08:07:16.000Z,13
2023-01-01T08:08:29.000Z,13
2023-01-01T08:09:41.000Z,13
2023-01-01T08:10:53.000Z,13
2023-01-01T08:12:05.000Z,13
2023-01-01T08:13:17.000Z,13
2023-01-01T08:14:30.000Z,13
2023-01-01T08:15:42.000Z,13
2023-01-01T08:16:54.000Z,13
2023-01-01T08:18:06.000Z,13
2023-01-01T08:19:18.000Z,13
2023-01-01T08:20:31.000Z,13
2023-01-01T08:21:43.000Z,13
2023-01-01T08:22:54.000Z,13
2023-01-01T08:24:06.000Z,13
2023-01-01T08:25:18.000Z,13
2023-01-01T08:27:43.000Z,13
2023-01-01T08:28:55.000Z,13.1
2023-01-01T08:30:07.000Z,13
2023-01-01T08:31:19.000Z,13.1
2023-01-01T08:32:31.000Z,13.1
2023-01-01T08:33:44.000Z,13.1
2023-01-01T08:33:48.803Z,13
2023-01-01T08:34:56.000Z,13.1
2023-01-01T08:36:08.000Z,13.1
2023-01-01T08:37:20.000Z,13.1
2023-01-01T08:38:31.000Z,13.1
2023-01-01T08:39:43.000Z,13.1
2023-01-01T08:40:56.000Z,13.1
2023-01-01T08:42:08.000Z,13.1
2023-01-01T08:44:32.000Z,13.2
2023-01-01T08:45:44.000Z,13.2
2023-01-01T08:46:57.000Z,13.2
2023-01-01T08:48:09.000Z,13.2
2023-01-01T08:50:33.000Z,13.2
2023-01-01T08:50:38.407Z,13.2
2023-01-01T08:51:45.000Z,13.3
2023-01-01T08:52:58.000Z,13.3
2023-01-01T08:54:09.000Z,13.3
2023-01-01T08:55:21.000Z,13.3
2023-01-01T08:56:33.000Z,13.4
2023-01-01T08:56:39.000Z,13.2
2023-01-01T08:57:45.000Z,13.4
2023-01-01T08:58:57.000Z,13.4
2023-01-01T09:00:10.000Z,13.4
2023-01-01T09:01:22.000Z,13.4
2023-01-01T09:02:34.000Z,13.5
2023-01-01T09:03:46.000Z,13.5
2023-01-01T09:04:58.000Z,13.5
2023-01-01T09:06:11.000Z,13.5
2023-01-01T09:07:23.000Z,13.6
2023-01-01T09:08:35.000Z,13.6
2023-01-01T09:09:46.000Z,13.6
2023-01-01T09:10:58.000Z,13.6
2023-01-01T09:12:10.000Z,13.6
2023-01-01T09:13:23.000Z,13.7
2023-01-01T09:15:47.000Z,13.7
2023-01-01T09:16:59.000Z,13.7
2023-01-01T09:18:11.000Z,13.7
2023-01-01T09:19:24.000Z,13.8
2023-01-01T09:20:36.000Z,13.8
2023-01-01T09:21:48.000Z,13.8
2023-01-01T09:21:53.240Z,13.7
2023-01-01T09:23:00.000Z,13.8
2023-01-01T09:24:12.000Z,13.8
2023-01-01T09:25:24.000Z,13.8
2023-01-01T09:26:36.000Z,13.8
2023-01-01T09:29:00.000Z,13.8
2023-01-01T09:30:12.000Z,13.9
2023-01-01T09:31:24.000Z,13.9
2023-01-01T09:32:37.000Z,13.9
2023-01-01T09:33:49.000Z,13.9
2023-01-01T09:35:01.000Z,13.9
2023-01-01T09:35:06.293Z,13.8
2023-01-01T09:36:13.000Z,13.9
2023-01-01T09:37:25.000Z,13.9
2023-01-01T09:38:38.000Z,13.9
2023-01-01T09:39:50.000Z,13.9
2023-01-01T09:41:01.000Z,14
2023-01-01T09:43:25.000Z,14
2023-01-01T09:44:37.000Z,14
2023-01-01T09:45:50.000Z,14
2023-01-01T09:47:02.000Z,14
2023-01-01T09:48:14.000Z,14
2023-01-01T09:49:26.000Z,14
2023-01-01T09:49:31.540Z,14
2023-01-01T09:50:38.000Z,14
2023-01-01T09:51:51.000Z,14
2023-01-01T09:53:03.000Z,14
2023-01-01T09:54:15.000Z,14
2023-01-01T09:55:27.000Z,14
2023-01-01T09:56:38.000Z,14.1
2023-01-01T09:57:51.000Z,14.1
2023-01-01T09:59:03.000Z,14.1
2023-01-01T10:01:27.000Z,14.1
2023-01-01T10:02:39.000Z,14.1
2023-01-01T10:03:51.000Z,14.1
2023-01-01T10:05:04.000Z,14.1
2023-01-01T10:06:16.000Z,14.1
2023-01-01T10:07:33.000Z,14.1
2023-01-01T10:09:52.000Z,14.2
2023-01-01T10:11:05.000Z,14.2
2023-01-01T10:14:40.000Z,14.2
2023-01-01T10:14:46.000Z,14.1
2023-01-01T10:15:52.000Z,14.3
2023-01-01T10:15:58.000Z,14.2
2023-01-01T10:17:05.000Z,14.3
2023-01-01T10:18:17.000Z,14.3
2023-01-01T10:19:29.000Z,14.3
2023-01-01T10:19:34.000Z,14.2
2023-01-01T10:20:41.000Z,14.3
2023-01-01T10:20:46.000Z,14.2
2023-01-01T10:21:53.000Z,14.4
2023-01-01T10:23:05.000Z,14.4
2023-01-01T10:24:18.000Z,14.4
2023-01-01T10:25:30.000Z,14.4
2023-01-01T10:26:42.000Z,14.4
2023-01-01T10:27:53.000Z,14.4
2023-01-01T10:29:05.000Z,14.4
2023-01-01T10:30:18.000Z,14.4
2023-01-01T10:32:42.000Z,14.4
2023-01-01T10:33:54.000Z,14.4
2023-01-01T10:35:05.000Z,14.4
2023-01-01T10:36:17.000Z,14.4
2023-01-01T10:37:30.000Z,14.4
2023-01-01T10:38:48.169Z,14.4
2023-01-01T10:39:54.000Z,14.4
2023-01-01T10:41:06.000Z,14.5
2023-01-01T10:42:18.000Z,14.5
2023-01-01T10:43:31.000Z,14.5
2023-01-01T10:44:43.000Z,14.5
2023-01-01T10:45:55.000Z,14.5
2023-01-01T10:46:00.304Z,14.4
2023-01-01T10:47:07.000Z,14.5
2023-01-01T10:48:19.000Z,14.5
2023-01-01T10:49:32.000Z,14.5
2023-01-01T10:50:43.000Z,14.5
2023-01-01T10:51:55.000Z,14.5
2023-01-01T10:53:07.000Z,14.5
2023-01-01T10:54:19.000Z,14.5
2023-01-01T10:55:31.000Z,14.5
2023-01-01T10:56:44.000Z,14.5
2023-01-01T10:57:56.000Z,14.5
2023-01-01T10:59:08.000Z,14.5
2023-01-01T11:00:20.000Z,14.5
2023-01-01T11:01:32.000Z,14.5
2023-01-01T11:02:45.000Z,14.5
2023-01-01T11:03:57.000Z,14.5
2023-01-01T11:05:09.000Z,14.5
2023-01-01T11:06:20.000Z,14.5
2023-01-01T11:07:32.000Z,14.5
2023-01-01T11:08:44.000Z,14.5
2023-01-01T11:09:57.000Z,14.5
2023-01-01T11:11:09.000Z,14.5
2023-01-01T11:12:21.000Z,14.6
2023-01-01T11:13:33.000Z,14.6
2023-01-01T11:14:45.000Z,14.6
2023-01-01T11:15:58.000Z,14.6
2023-01-01T11:17:10.000Z,14.6
2023-01-01T11:18:22.000Z,14.6
2023-01-01T11:19:34.000Z,14.6
2023-01-01T11:20:46.000Z,14.6
2023-01-01T11:23:10.000Z,14.6
2023-01-01T11:24:22.000Z,14.7
2023-01-01T11:25:34.000Z,14.7
2023-01-01T11:26:46.000Z,14.7
2023-01-01T11:27:58.000Z,14.7
2023-01-01T11:29:11.000Z,14.7
2023-01-01T11:29:16.000Z,14.6
2023-01-01T11:30:23.000Z,14.7
2023-01-01T11:31:35.000Z,14.7
2023-01-01T11:32:47.000Z,14.7
2023-01-01T11:33:59.000Z,14.8
2023-01-01T11:35:12.000Z,14.8
2023-01-01T11:36:24.000Z,14.8
2023-01-01T11:37:35.000Z,14.8
2023-01-01T11:38:47.000Z,14.8
2023-01-01T11:39:59.000Z,14.8
2023-01-01T11:41:12.000Z,14.8
2023-01-01T11:42:24.000Z,14.8
2023-01-01T11:43:36.000Z,14.8
2023-01-01T11:44:48.000Z,14.8
2023-01-01T11:46:00.000Z,14.8
2023-01-01T11:47:12.000Z,14.8
2023-01-01T11:48:25.000Z,14.8
2023-01-01T11:49:37.000Z,14.8
2023-01-01T11:50:49.000Z,14.8
2023-01-01T11:52:01.000Z,14.8
2023-01-01T11:53:12.000Z,14.9
2023-01-01T11:54:25.000Z,14.8
2023-01-01T11:55:37.000Z,14.9
2023-01-01T11:56:49.000Z,14.9
2023-01-01T11:58:01.000Z,14.9
2023-01-01T11:59:13.000Z,14.9
2023-01-01T12:00:25.000Z,14.9
2023-01-01T12:01:38.000Z,14.9
2023-01-01T12:02:50.000Z,14.9
2023-01-01T12:04:02.000Z,14.8
2023-01-01T12:05:14.000Z,14.8
2023-01-01T12:07:39.000Z,14.9
2023-01-01T12:08:50.000Z,14.9
2023-01-01T12:11:14.000Z,14.8
2023-01-01T12:12:26.000Z,14.8
2023-01-01T12:13:39.000Z,14.8
2023-01-01T12:13:44.886Z,14.9
2023-01-01T12:14:51.000Z,14.8
2023-01-01T12:16:03.000Z,14.8
2023-01-01T12:17:15.000Z,14.8
2023-01-01T12:17:20.455Z,14.8
2023-01-01T12:18:27.000Z,14.8
2023-01-01T12:19:39.000Z,14.8
2023-01-01T12:20:52.000Z,14.8
2023-01-01T12:22:04.000Z,14.8
2023-01-01T12:23:16.000Z,14.8
2023-01-01T12:24:27.000Z,14.8
2023-01-01T12:25:39.000Z,14.8
2023-01-01T12:26:52.000Z,14.8
2023-01-01T12:28:04.000Z,14.8
2023-01-01T12:29:16.000Z,14.8
2023-01-01T12:30:28.000Z,14.8
2023-01-01T12:31:40.000Z,14.7
2023-01-01T12:32:52.000Z,14.7
2023-01-01T12:34:05.000Z,14.7
2023-01-01T12:35:17.000Z,14.7
2023-01-01T12:36:29.000Z,14.7
2023-01-01T12:37:41.000Z,14.7
2023-01-01T12:38:53.000Z,14.7
2023-01-01T12:40:05.000Z,14.7
2023-01-01T12:41:17.000Z,14.7
2023-01-01T12:42:29.000Z,14.7
2023-01-01T12:43:41.000Z,14.7
2023-01-01T12:44:53.000Z,14.7
2023-01-01T12:46:06.000Z,14.7
2023-01-01T12:47:18.000Z,14.7
2023-01-01T12:48:30.000Z,14.7
2023-01-01T12:49:42.000Z,14.7
2023-01-01T12:50:54.000Z,14.6
2023-01-01T12:52:06.000Z,14.6
2023-01-01T12:53:19.000Z,14.6
2023-01-01T12:54:31.000Z,14.6
2023-01-01T12:55:42.000Z,14.6
2023-01-01T12:56:54.000Z,14.6
2023-01-01T12:58:06.000Z,14.6
2023-01-01T12:59:19.000Z,14.6
2023-01-01T13:00:31.000Z,14.6
2023-01-01T13:01:43.000Z,14.6
2023-01-01T13:02:55.000Z,14.6
2023-01-01T13:04:07.000Z,14.6
2023-01-01T13:05:19.000Z,14.6
2023-01-01T13:06:32.000Z,14.6
2023-01-01T13:07:44.000Z,14.6
2023-01-01T13:08:56.000Z,14.6
2023-01-01T13:10:08.000Z,14.5
2023-01-01T13:11:19.000Z,14.5
2023-01-01T13:12:32.000Z,14.5
2023-01-01T13:13:44.000Z,14.5
2023-01-01T13:14:56.000Z,14.5
2023-01-01T13:16:08.000Z,14.5
2023-01-01T13:17:20.000Z,14.5
2023-01-01T13:18:33.000Z,14.5
2023-01-01T13:19:45.000Z,14.5
2023-01-01T13:20:57.000Z,14.5
2023-01-01T13:22:09.000Z,14.5
2023-01-01T13:23:21.000Z,14.5
2023-01-01T13:24:33.000Z,14.5
2023-01-01T13:25:46.000Z,14.5
2023-01-01T13:26:57.000Z,14.5
2023-01-01T13:28:09.000Z,14.5
2023-01-01T13:29:21.000Z,14.5
2023-01-01T13:30:33.000Z,14.5
2023-01-01T13:31:46.000Z,14.4
2023-01-01T13:32:58.000Z,14.5
2023-01-01T13:34:10.000Z,14.4
2023-01-01T13:35:22.000Z,14.4
2023-01-01T13:36:34.000Z,14.4
2023-01-01T13:37:46.000Z,14.4
2023-01-01T13:38:59.000Z,14.4
2023-01-01T13:40:11.000Z,14.4
2023-01-01T13:41:23.000Z,14.4
2023-01-01T13:42:34.000Z,14.4
2023-01-01T13:43:46.000Z,14.4
2023-01-01T13:44:59.000Z,14.4
2023-01-01T13:46:11.000Z,14.4
2023-01-01T13:47:23.000Z,14.4
2023-01-01T13:48:35.000Z,14.4
2023-01-01T13:49:47.000Z,14.4
2023-01-01T13:51:00.000Z,14.4
2023-01-01T13:52:12.000Z,14.4
2023-01-01T13:53:24.000Z,14.4
2023-01-01T13:54:36.000Z,14.4
2023-01-01T13:55:48.000Z,14.4
2023-01-01T13:57:00.000Z,14.4
2023-01-01T13:58:12.000Z,14.4
2023-01-01T13:59:24.000Z,14.4
2023-01-01T14:00:36.000Z,14.4
2023-01-01T14:01:48.000Z,14.4
2023-01-01T14:03:00.000Z,14.4
2023-01-01T14:04:13.000Z,14.4
2023-01-01T14:05:25.000Z,14.4
2023-01-01T14:07:49.000Z,14.4
2023-01-01T14:09:01.000Z,14.4
2023-01-01T14:10:13.000Z,14.4
2023-01-01T14:11:26.000Z,14.3
2023-01-01T14:12:38.000Z,14.3
2023-01-01T14:13:49.000Z,14.3
2023-01-01T14:13:55.520Z,14.3
2023-01-01T14:15:01.000Z,14.3
2023-01-01T14:16:13.000Z,14.3
2023-01-01T14:17:26.000Z,14.3
2023-01-01T14:18:38.000Z,14.3
2023-01-01T14:21:02.000Z,14.3
2023-01-01T14:22:14.000Z,14.3
2023-01-01T14:23:27.000Z,14.3
2023-01-01T14:24:39.000Z,14.3
2023-01-01T14:25:51.000Z,14.3
2023-01-01T14:27:03.000Z,14.3
2023-01-01T14:27:08.572Z,14.3
2023-01-01T14:28:15.000Z,14.3
2023-01-01T14:29:26.000Z,14.3
2023-01-01T14:30:39.000Z,14.3
2023-01-01T14:31:51.000Z,14.3
2023-01-01T14:33:03.000Z,14.3
2023-01-01T14:34:15.000Z,14.3
2023-01-01T14:36:39.000Z,14.3
2023-01-01T14:37:51.000Z,14.3
2023-01-01T14:39:03.000Z,14.3
2023-01-01T14:40:15.000Z,14.3
2023-01-01T14:41:27.000Z,14.3
2023-01-01T14:42:40.000Z,14.3
2023-01-01T14:42:46.014Z,14.3
2023-01-01T14:43:52.000Z,14.3
2023-01-01T14:45:04.000Z,14.3
2023-01-01T14:46:16.000Z,14.3
2023-01-01T14:47:28.000Z,14.3
2023-01-01T14:48:40.000Z,14.3
2023-01-01T14:49:53.000Z,14.3
2023-01-01T14:51:05.000Z,14.3
2023-01-01T14:52:16.000Z,14.3
2023-01-01T14:53:28.000Z,14.3
2023-01-01T14:54:40.000Z,14.3
2023-01-01T14:55:53.000Z,14.3
2023-01-01T14:57:05.000Z,14.3
2023-01-01T14:58:17.000Z,14.3
2023-01-01T14:59:29.000Z,14.3
2023-01-01T15:00:41.000Z,14.3
2023-01-01T15:01:54.000Z,14.3
2023-01-01T15:03:06.000Z,14.3
2023-01-01T15:04:18.000Z,14.3
2023-01-01T15:05:30.000Z,14.3
2023-01-01T15:06:42.000Z,14.3
2023-01-01T15:07:53.000Z,14.3
2023-01-01T15:09:06.000Z,14.3
2023-01-01T15:10:18.000Z,14.2
2023-01-01T15:11:30.000Z,14.2
2023-01-01T15:12:42.000Z,14.2
2023-01-01T15:13:54.000Z,14.2
2023-01-01T15:15:07.000Z,14.2
2023-01-01T15:16:19.000Z,14.2
2023-01-01T15:17:31.000Z,14.2
2023-01-01T15:18:43.622Z,14.2
2023-01-01T15:19:55.000Z,14.2
2023-01-01T15:21:07.000Z,14.2
2023-01-01T15:22:20.000Z,14.2
2023-01-01T15:23:31.000Z,14.2
2023-01-01T15:24:43.000Z,14.2
2023-01-01T15:25:55.000Z,14.2
2023-01-01T15:27:07.000Z,14.2
2023-01-01T15:28:20.000Z,14.2
2023-01-01T15:29:32.000Z,14.1
2023-01-01T15:30:44.000Z,14.1
2023-01-01T15:31:56.000Z,14.1
2023-01-01T15:33:08.000Z,14.1
2023-01-01T15:34:21.000Z,14.2
2023-01-01T15:35:33.000Z,14.1
2023-01-01T15:36:45.000Z,14.1
2023-01-01T15:37:57.000Z,14.1
2023-01-01T15:39:08.000Z,14.1
2023-01-01T15:40:20.000Z,14.1
2023-01-01T15:41:33.000Z,14.1
2023-01-01T15:42:45.000Z,14.1
2023-01-01T15:43:57.000Z,14.1
2023-01-01T15:45:09.000Z,14.1
2023-01-01T15:46:21.000Z,14.1
2023-01-01T15:47:34.000Z,14.1
2023-01-01T15:48:46.000Z,14.1
2023-01-01T15:49:58.000Z,14.1
2023-01-01T15:51:10.000Z,14.1
2023-01-01T15:53:35.000Z,14.1
2023-01-01T15:54:46.000Z,14.1
2023-01-01T15:55:58.000Z,14.1
2023-01-01T15:57:10.000Z,14.1
2023-01-01T15:58:22.000Z,14.1
2023-01-01T15:59:34.000Z,14.1
2023-01-01T15:59:41.014Z,14.1
2023-01-01T16:00:47.000Z,14.1
2023-01-01T16:01:59.000Z,14
2023-01-01T16:03:11.000Z,14
2023-01-01T16:04:23.000Z,14
2023-01-01T16:05:35.000Z,14
2023-01-01T16:08:00.000Z,14
2023-01-01T16:09:12.000Z,14
2023-01-01T16:10:23.000Z,14
2023-01-01T16:11:35.000Z,14
2023-01-01T16:12:48.000Z,14
2023-01-01T16:14:00.000Z,14